Elton, Wisconsin
Current Conditions -  °F | °C
As of 9:35 AM on Monday 22 Dec 2014 (Local Time) from KAIG Reporting Station
Haze Haze  
Wind Chill: -5°   Ceiling: 300
Heat Index: -1°   Visibility: 1.2mi
Dew Point: -1°   Wind: 9mph
Humidity: 100%   Direction: 140°SE
Pressure: 29.84"   Gusts: NA
Location:  45.17°N, 88.89°W
Report Text: KAIG 221535Z AUTO 14008KT 1 1/4SM BR OVC003 M01/M01 A2984 RMK AO2 T10081008
Loading
Personal Weather Stations






























Interactive Weather Map New forecast layout! Learn more

10-Day Weather Forecast

Advertisements
Track Severe Weather on mobile